createdAt,value
2018-09-02T00:01:56.743Z,3.43
2018-09-02T00:04:25.284Z,5.37
2018-09-02T00:06:53.851Z,3.20
2018-09-02T00:09:22.424Z,3.93
2018-09-02T00:11:50.967Z,4.33
2018-09-02T00:14:19.557Z,3.47
2018-09-02T00:16:48.138Z,3.73
2018-09-02T00:19:17.233Z,4.03
2018-09-02T00:21:45.748Z,3.70
2018-09-02T00:24:14.347Z,4.37
2018-09-02T00:26:42.919Z,3.30
2018-09-02T00:29:11.503Z,3.30
2018-09-02T00:31:40.017Z,3.80
2018-09-02T00:34:08.532Z,3.10
2018-09-02T00:36:37.071Z,4.03
2018-09-02T00:39:07.851Z,4.50
2018-09-02T00:41:37.032Z,3.23
2018-09-02T00:44:05.670Z,3.37
2018-09-02T00:46:34.257Z,3.43
2018-09-02T00:49:02.963Z,4.17
2018-09-02T00:51:31.530Z,3.67
2018-09-02T00:54:00.114Z,3.13
2018-09-02T00:56:28.634Z,3.07
2018-09-02T00:58:57.194Z,4.23
2018-09-02T01:01:25.719Z,2.83
2018-09-02T01:03:54.270Z,2.87
2018-09-02T01:06:22.923Z,2.80
2018-09-02T01:08:51.439Z,3.10
2018-09-02T01:11:19.939Z,3.23
2018-09-02T01:13:48.462Z,4.07
2018-09-02T01:16:17.025Z,4.13
2018-09-02T01:18:45.587Z,3.33
2018-09-02T01:21:14.114Z,3.30
2018-09-02T01:23:42.747Z,3.80
2018-09-02T01:26:11.349Z,3.67
2018-09-02T01:28:39.899Z,3.07
2018-09-02T01:31:08.423Z,3.40
2018-09-02T01:33:36.995Z,3.40
2018-09-02T01:36:05.692Z,3.20
2018-09-02T01:38:34.239Z,3.50
2018-09-02T01:41:02.806Z,3.13
2018-09-02T01:43:31.390Z,4.27
2018-09-02T01:45:59.893Z,3.23
2018-09-02T01:48:28.486Z,3.70
2018-09-02T01:50:58.159Z,2.90
2018-09-02T01:53:26.927Z,3.30
2018-09-02T01:55:55.536Z,3.13
2018-09-02T01:58:24.089Z,3.23
2018-09-02T02:00:52.607Z,3.10
2018-09-02T02:03:21.129Z,3.30
2018-09-02T02:05:49.692Z,3.00
2018-09-02T02:08:18.270Z,3.00
2018-09-02T02:10:46.834Z,3.20
2018-09-02T02:13:15.314Z,4.03
2018-09-02T02:15:43.852Z,3.17
2018-09-02T02:18:12.414Z,3.40
2018-09-02T02:20:40.989Z,3.27
2018-09-02T02:23:09.538Z,4.00
2018-09-02T02:25:38.119Z,4.97
2018-09-02T02:28:06.739Z,3.60
2018-09-02T02:30:35.238Z,3.23
2018-09-02T02:33:03.862Z,3.30
2018-09-02T02:35:32.492Z,3.37
2018-09-02T02:38:01.037Z,3.10
2018-09-02T02:40:29.587Z,3.10
2018-09-02T02:42:58.165Z,3.30
2018-09-02T02:45:26.666Z,3.50
2018-09-02T02:47:55.193Z,3.50
2018-09-02T02:50:23.742Z,3.20
2018-09-02T02:52:57.309Z,3.10
2018-09-02T02:55:25.848Z,2.90
2018-09-02T02:57:54.405Z,3.63
2018-09-02T03:00:22.932Z,3.10
2018-09-02T03:02:51.413Z,3.33
2018-09-02T03:05:19.902Z,3.70
2018-09-02T03:07:48.423Z,3.23
2018-09-02T03:10:17.193Z,4.30
2018-09-02T03:12:45.813Z,3.37
2018-09-02T03:15:14.355Z,3.27
2018-09-02T03:17:42.898Z,3.57
2018-09-02T03:20:11.435Z,3.10
2018-09-02T03:22:39.930Z,2.83
2018-09-02T03:25:08.475Z,3.33
2018-09-02T03:27:37.024Z,3.00
2018-09-02T03:30:05.563Z,3.23
2018-09-02T03:32:34.090Z,3.03
2018-09-02T03:35:02.579Z,4.60
2018-09-02T03:37:31.088Z,3.20
2018-09-02T03:39:59.598Z,3.23
2018-09-02T03:42:28.131Z,3.23
2018-09-02T03:44:56.678Z,4.13
2018-09-02T03:47:25.220Z,2.80
2018-09-02T03:49:53.831Z,3.33
2018-09-02T03:52:22.396Z,3.10
2018-09-02T03:54:50.890Z,3.07
2018-09-02T03:57:19.432Z,3.10
2018-09-02T03:59:47.946Z,3.10
2018-09-02T04:02:16.479Z,3.07
2018-09-02T04:04:45.027Z,3.00
2018-09-02T04:07:13.572Z,2.83
2018-09-02T04:09:42.070Z,2.83
2018-09-02T04:12:10.571Z,2.80
2018-09-02T04:14:39.161Z,2.90
2018-09-02T04:17:07.725Z,2.90
2018-09-02T04:19:36.279Z,3.00
2018-09-02T04:22:04.850Z,3.33
2018-09-02T04:24:33.336Z,3.20
2018-09-02T04:27:01.830Z,2.70
2018-09-02T04:29:30.305Z,3.63
2018-09-02T04:31:58.833Z,3.30
2018-09-02T04:34:27.428Z,3.03
2018-09-02T04:36:55.947Z,3.07
2018-09-02T04:39:24.504Z,4.87
2018-09-02T04:41:53.119Z,3.40
2018-09-02T04:44:21.633Z,3.07
2018-09-02T04:46:50.178Z,2.83
2018-09-02T04:49:18.702Z,3.23
2018-09-02T04:51:47.205Z,2.67
2018-09-02T04:54:15.793Z,2.87
2018-09-02T04:56:44.282Z,3.30
2018-09-02T04:59:12.927Z,2.90
2018-09-02T05:01:41.513Z,2.63
2018-09-02T05:04:10.050Z,2.87
2018-09-02T05:06:38.749Z,4.63
2018-09-02T05:09:07.304Z,2.97
2018-09-02T05:11:35.846Z,2.90
2018-09-02T05:14:04.447Z,3.60
2018-09-02T05:16:32.942Z,2.80
2018-09-02T05:19:01.542Z,3.23
2018-09-02T05:21:30.130Z,3.27
2018-09-02T05:23:58.671Z,2.80
2018-09-02T05:26:27.187Z,2.97
2018-09-02T05:28:55.656Z,3.33
2018-09-02T05:31:24.258Z,2.87
2018-09-02T05:33:52.827Z,2.87
2018-09-02T05:36:21.407Z,3.03
2018-09-02T05:38:49.985Z,2.73
2018-09-02T05:41:18.531Z,3.10
2018-09-02T05:43:47.108Z,3.40
2018-09-02T05:46:15.684Z,3.20
2018-09-02T05:48:44.180Z,3.30
2018-09-02T05:51:12.725Z,2.90
2018-09-02T05:53:41.300Z,3.97
2018-09-02T05:56:09.857Z,3.10
2018-09-02T05:58:38.392Z,2.70
2018-09-02T06:01:06.922Z,3.23
2018-09-02T06:03:35.532Z,3.13
2018-09-02T06:06:04.179Z,3.10
2018-09-02T06:08:32.738Z,3.07
2018-09-02T06:11:01.303Z,3.00
2018-09-02T06:13:29.886Z,3.30
2018-09-02T06:15:58.491Z,3.37
2018-09-02T06:18:27.102Z,3.30
2018-09-02T06:20:55.682Z,3.73
2018-09-02T06:23:24.256Z,3.30
2018-09-02T06:25:52.799Z,3.60
2018-09-02T06:28:21.350Z,3.17
2018-09-02T06:30:49.931Z,3.50
2018-09-02T06:33:18.447Z,3.30
2018-09-02T06:35:48.555Z,3.33
2018-09-02T06:38:17.131Z,2.90
2018-09-02T06:40:45.703Z,3.00
2018-09-02T06:43:14.305Z,3.00
2018-09-02T06:45:42.953Z,2.83
2018-09-02T06:48:11.687Z,2.90
2018-09-02T06:50:40.238Z,3.30
2018-09-02T06:53:08.839Z,3.33
2018-09-02T06:55:37.377Z,2.87
2018-09-02T06:58:14.086Z,3.00
2018-09-02T07:00:47.717Z,3.13
2018-09-02T07:03:18.786Z,3.03
2018-09-02T07:05:48.614Z,3.10
2018-09-02T07:08:17.884Z,3.33
2018-09-02T07:10:46.365Z,2.87
2018-09-02T07:13:14.902Z,2.97
2018-09-02T07:15:43.433Z,3.20
2018-09-02T07:18:11.958Z,3.07
2018-09-02T07:20:40.453Z,3.00
2018-09-02T07:23:08.975Z,3.40
2018-09-02T07:25:37.488Z,2.70
2018-09-02T07:28:06.158Z,2.70
2018-09-02T07:30:34.671Z,3.10
2018-09-02T07:33:03.295Z,3.23
2018-09-02T07:35:31.893Z,2.90
2018-09-02T07:38:00.469Z,2.87
2018-09-02T07:40:28.980Z,3.47
2018-09-02T07:42:57.559Z,3.10
2018-09-02T07:45:26.051Z,2.67
2018-09-02T07:47:54.569Z,3.60
2018-09-02T07:50:23.075Z,3.37
2018-09-02T07:52:51.586Z,2.80
2018-09-02T07:55:20.429Z,2.90
2018-09-02T07:57:49.527Z,3.00
2018-09-02T08:00:18.098Z,2.70
2018-09-02T08:02:46.673Z,20.57
2018-09-02T08:05:15.107Z,6.53
2018-09-02T08:07:43.596Z,6.97
2018-09-02T08:10:12.065Z,6.40
2018-09-02T08:12:40.614Z,3.53
2018-09-02T08:15:09.086Z,13.10
2018-09-02T08:17:37.563Z,6.17
2018-09-02T08:20:06.270Z,5.83
2018-09-02T08:22:35.653Z,7.20
2018-09-02T08:25:04.214Z,7.10
2018-09-02T08:27:32.738Z,6.33
2018-09-02T08:30:01.215Z,6.40
2018-09-02T08:32:29.698Z,6.30
2018-09-02T08:34:58.162Z,6.57
2018-09-02T08:37:26.706Z,5.90
2018-09-02T08:39:55.238Z,5.90
2018-09-02T08:42:23.724Z,6.70
2018-09-02T08:44:52.235Z,6.20
2018-09-02T08:47:20.702Z,8.67
2018-09-02T08:49:49.192Z,6.47
2018-09-02T08:52:17.670Z,6.10
2018-09-02T08:54:46.162Z,5.93
2018-09-02T08:57:14.639Z,6.20
2018-09-02T08:59:43.135Z,5.37
2018-09-02T09:02:11.603Z,5.33
2018-09-02T09:04:40.068Z,5.27
2018-09-02T09:07:08.570Z,33.97
2018-09-02T09:09:37.042Z,24.27
2018-09-02T09:12:05.525Z,15.33
2018-09-02T09:14:34.010Z,15.03
2018-09-02T09:17:02.614Z,25.77
2018-09-02T09:19:31.078Z,11.97
2018-09-02T09:21:59.624Z,15.73
2018-09-02T09:24:28.180Z,21.17
2018-09-02T09:26:56.713Z,13.73
2018-09-02T09:29:25.316Z,16.37
2018-09-02T09:31:53.856Z,13.43
2018-09-02T09:34:22.422Z,10.57
2018-09-02T09:36:50.969Z,9.23
2018-09-02T09:39:19.474Z,7.37
2018-09-02T09:41:47.967Z,8.33
2018-09-02T09:44:16.500Z,7.10
2018-09-02T09:46:45.091Z,7.30
2018-09-02T09:49:13.698Z,6.37
2018-09-02T09:51:42.505Z,7.77
2018-09-02T09:54:11.025Z,6.67
2018-09-02T09:56:39.698Z,9.90
2018-09-02T09:59:08.243Z,10.97
2018-09-02T10:01:36.775Z,29.00
2018-09-02T10:04:05.339Z,23.07
2018-09-02T10:06:33.892Z,16.93
2018-09-02T10:09:02.442Z,58.80
2018-09-02T10:11:31.034Z,62.27
2018-09-02T10:13:59.575Z,45.20
2018-09-02T10:16:28.138Z,41.67
2018-09-02T10:18:56.634Z,29.50
2018-09-02T10:21:25.189Z,39.20
2018-09-02T10:23:53.694Z,46.30
2018-09-02T10:26:22.235Z,51.50
2018-09-02T10:28:50.810Z,38.10
2018-09-02T10:31:19.367Z,36.50
2018-09-02T10:33:48.000Z,68.30
2018-09-02T10:36:16.643Z,96.13
2018-09-02T10:38:45.152Z,103.43
2018-09-02T10:41:13.810Z,65.70
2018-09-02T10:43:42.231Z,76.87
2018-09-02T10:46:10.704Z,93.03
2018-09-02T10:48:39.222Z,77.10
2018-09-02T10:51:07.786Z,84.90
2018-09-02T10:53:36.341Z,86.23
2018-09-02T10:56:04.832Z,102.73
2018-09-02T10:58:33.293Z,72.87
2018-09-02T11:01:01.774Z,62.00
2018-09-02T11:03:30.266Z,71.87
2018-09-02T11:05:58.795Z,76.77
2018-09-02T11:08:27.276Z,72.63
2018-09-02T11:10:55.822Z,80.80
2018-09-02T11:13:24.352Z,77.03
2018-09-02T11:15:52.846Z,75.63
2018-09-02T11:18:21.386Z,81.77
2018-09-02T11:20:49.871Z,82.13
2018-09-02T11:23:18.416Z,72.03
2018-09-02T11:25:46.970Z,59.63
2018-09-02T11:28:15.467Z,63.87
2018-09-02T11:30:43.930Z,82.47
2018-09-02T11:33:12.545Z,77.27
2018-09-02T11:35:41.028Z,59.17
2018-09-02T11:38:09.504Z,76.60
2018-09-02T11:40:37.984Z,80.80
2018-09-02T11:43:06.781Z,67.97
2018-09-02T11:45:35.270Z,66.00
2018-09-02T11:48:03.761Z,70.73
2018-09-02T11:50:32.259Z,74.97
2018-09-02T11:53:00.741Z,65.47
2018-09-02T11:55:29.239Z,68.80
2018-09-02T11:57:57.773Z,108.43
2018-09-02T12:00:27.082Z,86.03
2018-09-02T12:02:56.019Z,82.10
2018-09-02T12:05:24.746Z,73.83
2018-09-02T12:07:53.412Z,103.20
2018-09-02T12:10:22.210Z,121.27
2018-09-02T12:12:50.868Z,121.90
2018-09-02T12:15:19.585Z,107.00
2018-09-02T12:17:48.320Z,78.47
2018-09-02T12:20:16.898Z,96.20
2018-09-02T12:22:45.693Z,79.03
2018-09-02T12:25:14.191Z,116.13
2018-09-02T12:27:42.687Z,96.30
2018-09-02T12:30:11.174Z,74.53
2018-09-02T12:32:39.843Z,99.37
2018-09-02T12:35:08.345Z,69.83
2018-09-02T12:37:36.834Z,64.60
2018-09-02T12:40:05.317Z,61.43
2018-09-02T12:42:33.944Z,80.23
2018-09-02T12:45:02.624Z,82.43
2018-09-02T12:47:31.129Z,70.23
2018-09-02T12:49:59.597Z,68.63
2018-09-02T12:52:28.102Z,50.53
2018-09-02T12:54:56.644Z,59.43
2018-09-02T12:57:25.166Z,59.60
2018-09-02T12:59:53.652Z,60.43
2018-09-02T13:02:22.118Z,58.37
2018-09-02T13:04:50.603Z,71.30
2018-09-02T13:07:19.135Z,42.93
2018-09-02T13:09:47.650Z,45.37
2018-09-02T13:12:16.165Z,57.43
2018-09-02T13:14:45.075Z,57.43
2018-09-02T13:17:13.557Z,50.27
2018-09-02T13:19:42.084Z,38.13
2018-09-02T13:22:10.570Z,40.03
2018-09-02T13:24:39.177Z,48.60
2018-09-02T13:27:07.616Z,60.43
2018-09-02T13:29:36.151Z,64.93
2018-09-02T13:32:04.726Z,54.33
2018-09-02T13:34:33.212Z,57.43
2018-09-02T13:37:01.762Z,48.33
2018-09-02T13:39:30.246Z,45.37
2018-09-02T13:41:58.765Z,49.73
2018-09-02T13:44:27.242Z,55.27
2018-09-02T13:46:55.885Z,53.47
2018-09-02T13:49:24.399Z,56.47
2018-09-02T13:51:52.896Z,70.97
2018-09-02T13:54:21.430Z,48.10
2018-09-02T13:56:49.894Z,50.00
2018-09-02T13:59:18.365Z,44.20
2018-09-02T14:01:46.855Z,44.40
2018-09-02T14:04:15.321Z,42.37
2018-09-02T14:06:43.994Z,38.60
2018-09-02T14:09:12.479Z,47.10
2018-09-02T14:11:40.968Z,39.73
2018-09-02T14:14:09.463Z,46.93
2018-09-02T14:16:37.961Z,44.53
2018-09-02T14:19:06.440Z,43.63
2018-09-02T14:21:35.051Z,48.00
2018-09-02T14:24:03.551Z,36.33
2018-09-02T14:26:32.127Z,42.27
2018-09-02T14:29:00.714Z,40.30
2018-09-02T14:31:29.203Z,39.93
2018-09-02T14:33:57.698Z,38.20
2018-09-02T14:36:26.242Z,39.33
2018-09-02T14:38:54.740Z,40.87
2018-09-02T14:41:23.234Z,36.20
2018-09-02T14:43:51.871Z,43.63
2018-09-02T14:46:20.306Z,33.87
2018-09-02T14:48:48.776Z,44.17
2018-09-02T14:51:17.246Z,43.47
2018-09-02T14:53:45.747Z,31.87
2018-09-02T14:56:14.231Z,29.47
2018-09-02T14:58:42.882Z,31.83
2018-09-02T15:01:11.471Z,26.73
2018-09-02T15:03:39.950Z,28.03
2018-09-02T15:06:08.526Z,31.40
2018-09-02T15:08:37.004Z,22.67
2018-09-02T15:11:05.494Z,28.20
2018-09-02T15:13:34.051Z,23.60
2018-09-02T15:16:02.601Z,30.47
2018-09-02T15:18:31.151Z,27.60
2018-09-02T15:20:59.716Z,33.97
2018-09-02T15:23:28.197Z,27.53
2018-09-02T15:25:56.789Z,25.57
2018-09-02T15:28:25.411Z,26.43
2018-09-02T15:30:53.898Z,27.43
2018-09-02T15:33:22.445Z,30.80
2018-09-02T15:35:51.055Z,19.93
2018-09-02T15:38:19.679Z,26.50
2018-09-02T15:40:48.165Z,27.00
2018-09-02T15:43:16.715Z,26.30
2018-09-02T15:45:45.346Z,21.03
2018-09-02T15:48:14.746Z,26.77
2018-09-02T15:50:43.266Z,19.17
2018-09-02T15:53:12.136Z,22.63
2018-09-02T15:55:41.142Z,20.97
2018-09-02T15:58:09.634Z,22.50
2018-09-02T16:00:38.123Z,24.77
2018-09-02T16:03:06.652Z,21.73
2018-09-02T16:05:35.178Z,22.03
2018-09-02T16:08:03.661Z,25.20
2018-09-02T16:10:32.146Z,25.33
2018-09-02T16:13:00.997Z,21.47
2018-09-02T16:15:29.539Z,21.87
2018-09-02T16:17:58.046Z,19.33
2018-09-02T16:20:26.522Z,20.30
2018-09-02T16:22:55.016Z,18.50
2018-09-02T16:25:23.514Z,18.53
2018-09-02T16:27:52.007Z,22.67
2018-09-02T16:30:20.650Z,21.00
2018-09-02T16:32:49.207Z,18.47
2018-09-02T16:35:17.715Z,14.80
2018-09-02T16:37:46.206Z,19.83
2018-09-02T16:40:14.737Z,18.67
2018-09-02T16:42:43.274Z,21.73
2018-09-02T16:45:11.819Z,19.47
2018-09-02T16:47:40.371Z,18.50
2018-09-02T16:50:08.855Z,20.50
2018-09-02T16:52:37.359Z,18.00
2018-09-02T16:55:05.983Z,21.23
2018-09-02T16:57:34.455Z,16.80
2018-09-02T17:00:02.991Z,17.33
2018-09-02T17:02:31.527Z,20.63
2018-09-02T17:05:04.303Z,19.40
2018-09-02T17:07:32.837Z,33.87
2018-09-02T17:10:01.357Z,39.13
2018-09-02T17:12:29.870Z,67.57
2018-09-02T17:14:58.363Z,55.07
2018-09-02T17:17:26.872Z,32.13
2018-09-02T17:19:57.320Z,30.33
2018-09-02T17:22:25.802Z,25.70
2018-09-02T17:24:54.344Z,30.83
2018-09-02T17:27:22.867Z,21.33
2018-09-02T17:29:51.340Z,24.80
2018-09-02T17:32:21.365Z,32.33
2018-09-02T17:34:49.862Z,41.77
2018-09-02T17:37:18.356Z,27.73
2018-09-02T17:39:46.843Z,32.47
2018-09-02T17:42:15.333Z,25.27
2018-09-02T17:44:43.829Z,30.07
2018-09-02T17:47:12.315Z,28.90
2018-09-02T17:49:40.815Z,18.40
2018-09-02T17:52:09.304Z,25.57
2018-09-02T17:54:37.835Z,17.87
2018-09-02T17:57:06.315Z,29.27
2018-09-02T17:59:34.835Z,26.13
2018-09-02T18:02:03.381Z,21.87
2018-09-02T18:04:31.891Z,23.87
2018-09-02T18:07:00.473Z,19.80
2018-09-02T18:09:28.942Z,25.70
2018-09-02T18:11:57.416Z,23.93
2018-09-02T18:14:25.923Z,29.00
2018-09-02T18:16:54.466Z,19.57
2018-09-02T18:19:22.938Z,37.10
2018-09-02T18:21:51.422Z,23.37
2018-09-02T18:24:19.931Z,17.00
2018-09-02T18:26:48.400Z,10.10
2018-09-02T18:29:16.876Z,17.80
2018-09-02T18:31:45.371Z,15.67
2018-09-02T18:34:13.838Z,13.13
2018-09-02T18:36:42.320Z,12.90
2018-09-02T18:39:11.506Z,19.83
2018-09-02T18:41:39.918Z,12.83
2018-09-02T18:44:08.398Z,19.17
2018-09-02T18:46:36.919Z,16.53
2018-09-02T18:49:06.235Z,17.10
2018-09-02T18:51:34.710Z,12.83
2018-09-02T18:54:03.261Z,18.07
2018-09-02T18:56:31.755Z,11.30
2018-09-02T18:59:00.379Z,13.73
2018-09-02T19:01:28.866Z,14.37
2018-09-02T19:03:58.214Z,15.40
2018-09-02T19:06:43.632Z,13.70
2018-09-02T19:09:12.102Z,14.73
2018-09-02T19:11:40.583Z,12.77
2018-09-02T19:14:09.104Z,12.03
2018-09-02T19:16:37.603Z,20.60
2018-09-02T19:19:06.326Z,10.97
2018-09-02T19:21:34.811Z,19.57
2018-09-02T19:24:09.936Z,11.13
2018-09-02T19:26:38.414Z,13.97
2018-09-02T19:29:06.970Z,14.97
2018-09-02T19:31:35.466Z,15.27
2018-09-02T19:34:03.945Z,14.57
2018-09-02T19:36:32.476Z,15.57
2018-09-02T19:39:01.039Z,13.07
2018-09-02T19:41:29.505Z,9.53
2018-09-02T19:43:59.008Z,11.50
2018-09-02T19:46:27.650Z,16.33
2018-09-02T19:48:56.167Z,14.97
2018-09-02T19:51:25.364Z,16.80
2018-09-02T19:53:53.913Z,15.40
2018-09-02T19:56:22.434Z,48.50
2018-09-02T19:58:50.947Z,36.93
2018-09-02T20:01:19.519Z,28.10
2018-09-02T20:03:48.047Z,27.30
2018-09-02T20:06:16.653Z,25.63
2018-09-02T20:08:45.253Z,23.27
2018-09-02T20:11:13.835Z,16.73
2018-09-02T20:13:42.428Z,25.00
2018-09-02T20:16:11.143Z,28.03
2018-09-02T20:18:39.830Z,17.70
2018-09-02T20:21:08.359Z,14.17
2018-09-02T20:23:36.909Z,18.43
2018-09-02T20:26:05.500Z,21.20
2018-09-02T20:28:34.121Z,14.63
2018-09-02T20:31:02.736Z,19.00
2018-09-02T20:33:31.276Z,29.27
2018-09-02T20:35:59.918Z,15.87
2018-09-02T20:38:28.448Z,12.17
2018-09-02T20:40:57.005Z,17.53
2018-09-02T20:43:25.683Z,19.03
2018-09-02T20:45:54.257Z,15.47
2018-09-02T20:48:22.763Z,18.90
2018-09-02T20:50:51.268Z,9.13
2018-09-02T20:53:19.816Z,15.87
2018-09-02T20:55:48.408Z,15.70
2018-09-02T20:58:16.954Z,14.77
2018-09-02T21:00:47.986Z,15.50
2018-09-02T21:03:17.490Z,12.40
2018-09-02T21:05:46.107Z,14.87
2018-09-02T21:08:14.754Z,20.50
2018-09-02T21:10:43.280Z,13.87
2018-09-02T21:13:12.059Z,12.00
2018-09-02T21:15:40.592Z,12.40
2018-09-02T21:18:09.122Z,12.97
2018-09-02T21:20:37.722Z,19.67
2018-09-02T21:23:06.316Z,14.50
2018-09-02T21:25:34.869Z,11.53
2018-09-02T21:28:03.382Z,11.17
2018-09-02T21:30:31.890Z,11.53
2018-09-02T21:33:00.392Z,12.80
2018-09-02T21:35:28.946Z,13.37
2018-09-02T21:37:57.473Z,12.30
2018-09-02T21:40:25.987Z,12.37
2018-09-02T21:42:54.516Z,11.37
2018-09-02T21:45:24.247Z,10.17
2018-09-02T21:47:52.885Z,13.67
2018-09-02T21:50:21.466Z,11.47
2018-09-02T21:52:50.074Z,10.70
2018-09-02T21:55:18.605Z,13.00
2018-09-02T21:57:47.162Z,13.83
2018-09-02T22:00:17.058Z,11.03
2018-09-02T22:02:45.612Z,12.93
2018-09-02T22:05:15.378Z,8.30
2018-09-02T22:07:43.946Z,10.13
2018-09-02T22:10:12.817Z,11.20
2018-09-02T22:12:41.417Z,15.00
2018-09-02T22:15:10.650Z,11.37
2018-09-02T22:17:39.187Z,13.03
2018-09-02T22:20:08.098Z,10.93
2018-09-02T22:22:36.632Z,12.73
2018-09-02T22:25:05.724Z,11.33
2018-09-02T22:27:34.279Z,13.30
2018-09-02T22:30:02.799Z,9.90
2018-09-02T22:32:31.414Z,10.23
2018-09-02T22:34:59.972Z,10.27
2018-09-02T22:37:28.554Z,10.60
2018-09-02T22:39:57.061Z,7.33
2018-09-02T22:42:25.586Z,9.67
2018-09-02T22:44:54.078Z,9.50
2018-09-02T22:47:22.615Z,10.80
2018-09-02T22:49:51.186Z,11.40
2018-09-02T22:52:19.707Z,6.03
2018-09-02T22:54:48.268Z,11.17
2018-09-02T22:57:16.934Z,8.87
2018-09-02T22:59:45.523Z,12.23
2018-09-02T23:02:14.038Z,9.70
2018-09-02T23:04:42.598Z,8.83
2018-09-02T23:07:11.110Z,8.37
2018-09-02T23:09:39.661Z,12.47
2018-09-02T23:12:08.183Z,8.70
2018-09-02T23:14:36.782Z,9.27
2018-09-02T23:17:05.344Z,11.30
2018-09-02T23:19:33.940Z,9.53
2018-09-02T23:22:02.455Z,7.60
2018-09-02T23:24:31.142Z,7.60
2018-09-02T23:26:59.681Z,9.67
2018-09-02T23:29:28.200Z,9.77
2018-09-02T23:31:56.752Z,6.43
2018-09-02T23:34:25.279Z,6.07
2018-09-02T23:36:53.820Z,6.97
2018-09-02T23:39:22.350Z,8.50
2018-09-02T23:41:50.837Z,7.63
2018-09-02T23:44:19.352Z,11.67
2018-09-02T23:46:47.851Z,9.97
2018-09-02T23:49:16.387Z,8.20
2018-09-02T23:51:44.958Z,10.13
2018-09-02T23:54:13.568Z,11.60
2018-09-02T23:56:42.290Z,7.73
2018-09-02T23:59:10.866Z,6.00
